createdAt,value
2022-09-12T00:01:02.997Z,25.60
2022-09-12T00:03:30.233Z,25.60
2022-09-12T00:05:57.401Z,25.50
2022-09-12T00:08:24.605Z,25.50
2022-09-12T00:10:52.000Z,25.40
2022-09-12T00:13:19.176Z,25.40
2022-09-12T00:15:46.402Z,25.40
2022-09-12T00:18:17.035Z,25.40
2022-09-12T00:20:46.559Z,25.30
2022-09-12T00:23:15.385Z,25.30
2022-09-12T00:25:44.729Z,25.30
2022-09-12T00:28:13.366Z,25.20
2022-09-12T00:30:46.385Z,25.20
2022-09-12T00:33:14.083Z,25.20
2022-09-12T00:35:43.261Z,25.20
2022-09-12T00:38:11.199Z,25.10
2022-09-12T00:40:38.967Z,25.10
2022-09-12T00:43:10.379Z,25.10
2022-09-12T00:45:37.666Z,25.20
2022-09-12T00:48:05.680Z,25.10
2022-09-12T00:50:33.631Z,25.10
2022-09-12T00:53:06.639Z,25.10
2022-09-12T00:55:42.083Z,25.10
2022-09-12T00:58:26.847Z,25.10
2022-09-12T01:00:54.160Z,25.00
2022-09-12T01:03:23.680Z,25.00
2022-09-12T01:06:12.050Z,25.00
2022-09-12T01:08:41.246Z,24.90
2022-09-12T01:11:11.303Z,24.90
2022-09-12T01:13:38.626Z,24.90
2022-09-12T01:16:07.151Z,24.90
2022-09-12T01:18:53.431Z,24.90
2022-09-12T01:21:20.699Z,24.90
2022-09-12T01:24:20.883Z,24.90
2022-09-12T01:27:23.091Z,24.90
2022-09-12T01:30:01.943Z,24.90
2022-09-12T01:33:04.312Z,24.90
2022-09-12T01:35:46.104Z,24.80
2022-09-12T01:38:50.764Z,24.80
2022-09-12T01:42:06.016Z,24.80
2022-09-12T01:45:02.967Z,24.70
2022-09-12T01:47:54.451Z,24.70
2022-09-12T01:50:26.182Z,24.70
2022-09-12T01:53:09.051Z,24.70
2022-09-12T01:55:56.651Z,24.70
2022-09-12T01:58:49.895Z,24.70
2022-09-12T02:01:31.707Z,24.70
2022-09-12T02:04:14.222Z,24.70
2022-09-12T02:06:51.385Z,24.60
2022-09-12T02:09:28.177Z,24.60
2022-09-12T02:12:00.479Z,24.60
2022-09-12T02:14:37.608Z,24.60
2022-09-12T02:17:13.558Z,24.60
2022-09-12T02:19:47.561Z,24.50
2022-09-12T02:22:19.827Z,24.50
2022-09-12T02:24:50.930Z,24.50
2022-09-12T02:27:38.462Z,24.50
2022-09-12T02:30:07.227Z,24.50
2022-09-12T02:33:00.898Z,24.40
2022-09-12T02:35:48.786Z,24.40
2022-09-12T02:38:37.541Z,24.40
2022-09-12T02:41:05.016Z,24.40
2022-09-12T02:43:32.256Z,24.30
2022-09-12T02:46:00.725Z,24.30
2022-09-12T02:48:34.623Z,24.30
2022-09-12T02:51:02.622Z,24.30
2022-09-12T02:53:30.074Z,24.30
2022-09-12T02:55:57.965Z,24.30
2022-09-12T02:58:30.643Z,24.30
2022-09-12T03:01:09.651Z,24.30
2022-09-12T03:03:57.139Z,24.30
2022-09-12T03:06:44.416Z,24.30
2022-09-12T03:09:37.773Z,24.30
2022-09-12T03:12:33.030Z,24.20
2022-09-12T03:15:31.557Z,24.30
2022-09-12T03:18:25.898Z,24.30
2022-09-12T03:21:08.362Z,24.30
2022-09-12T03:24:01.270Z,24.30
2022-09-12T03:26:38.308Z,24.30
2022-09-12T03:29:07.279Z,24.10
2022-09-12T03:31:34.546Z,24.10
2022-09-12T03:34:02.135Z,24.10
2022-09-12T03:36:31.332Z,24.00
2022-09-12T03:38:58.637Z,24.00
2022-09-12T03:41:25.871Z,23.90
2022-09-12T03:43:53.142Z,23.90
2022-09-12T03:46:20.347Z,23.90
2022-09-12T03:48:47.529Z,23.90
2022-09-12T03:51:14.796Z,24.00
2022-09-12T03:53:42.111Z,23.90
2022-09-12T03:56:11.128Z,23.90
2022-09-12T03:58:38.482Z,23.90
2022-09-12T04:01:13.490Z,23.80
2022-09-12T04:03:44.800Z,23.80
2022-09-12T04:06:14.910Z,23.80
2022-09-12T04:08:43.803Z,23.70
2022-09-12T04:11:13.318Z,23.70
2022-09-12T04:13:42.445Z,23.70
2022-09-12T04:16:10.500Z,23.70
2022-09-12T04:18:38.587Z,23.70
2022-09-12T04:21:12.901Z,23.70
2022-09-12T04:23:40.274Z,23.60
2022-09-12T04:26:07.670Z,23.60
2022-09-12T04:28:36.747Z,23.60
2022-09-12T04:31:09.099Z,23.50
2022-09-12T04:33:37.053Z,23.50
2022-09-12T04:36:14.516Z,23.40
2022-09-12T04:38:41.727Z,23.40
2022-09-12T04:41:18.094Z,23.40
2022-09-12T04:43:46.642Z,23.40
2022-09-12T04:46:16.774Z,23.40
2022-09-12T04:48:45.483Z,23.40
2022-09-12T04:51:17.321Z,23.40
2022-09-12T04:53:49.220Z,23.40
2022-09-12T04:56:16.827Z,23.40
2022-09-12T04:58:44.139Z,23.40
2022-09-12T05:01:14.380Z,23.40
2022-09-12T05:03:45.559Z,23.40
2022-09-12T05:06:15.987Z,23.40
2022-09-12T05:08:43.936Z,23.50
2022-09-12T05:11:19.550Z,23.50
2022-09-12T05:13:49.673Z,23.60
2022-09-12T05:16:18.211Z,23.60
2022-09-12T05:18:47.414Z,23.60
2022-09-12T05:21:18.331Z,23.70
2022-09-12T05:23:45.939Z,23.70
2022-09-12T05:26:19.218Z,23.80
2022-09-12T05:28:47.548Z,23.80
2022-09-12T05:31:26.232Z,23.80
2022-09-12T05:33:55.337Z,23.90
2022-09-12T05:36:25.530Z,23.90
2022-09-12T05:38:53.123Z,23.90
2022-09-12T05:41:24.971Z,23.90
2022-09-12T05:43:54.724Z,23.90
2022-09-12T05:46:24.530Z,24.00
2022-09-12T05:48:56.114Z,24.10
2022-09-12T05:51:25.687Z,24.10
2022-09-12T05:53:55.988Z,24.20
2022-09-12T05:56:26.422Z,24.30
2022-09-12T05:58:56.155Z,24.40
2022-09-12T06:01:23.549Z,24.60
2022-09-12T06:03:52.753Z,24.60
2022-09-12T06:06:22.218Z,24.70
2022-09-12T06:08:51.719Z,24.90
2022-09-12T06:11:22.190Z,24.90
2022-09-12T06:13:51.154Z,25.00
2022-09-12T06:16:22.942Z,25.10
2022-09-12T06:18:55.173Z,25.30
2022-09-12T06:21:23.428Z,25.40
2022-09-12T06:23:50.962Z,25.60
2022-09-12T06:26:21.769Z,25.80
2022-09-12T06:28:49.844Z,25.90
2022-09-12T06:31:25.904Z,26.10
2022-09-12T06:33:55.198Z,26.30
2022-09-12T06:36:25.916Z,26.40
2022-09-12T06:38:58.941Z,26.50
2022-09-12T06:41:27.046Z,26.60
2022-09-12T06:43:54.568Z,26.70
2022-09-12T06:46:22.420Z,26.90
2022-09-12T06:48:50.670Z,27.10
2022-09-12T06:51:20.284Z,27.20
2022-09-12T06:53:48.797Z,27.30
2022-09-12T06:56:21.801Z,27.30
2022-09-12T06:58:50.789Z,27.40
2022-09-12T07:01:29.559Z,27.50
2022-09-12T07:04:03.123Z,27.60
2022-09-12T07:06:38.979Z,27.70
2022-09-12T07:09:08.406Z,27.60
2022-09-12T07:11:37.357Z,27.60
2022-09-12T07:14:06.358Z,27.70
2022-09-12T07:16:36.935Z,27.80
2022-09-12T07:19:06.002Z,27.90
2022-09-12T07:21:33.214Z,27.80
2022-09-12T07:24:02.946Z,27.70
2022-09-12T07:26:30.582Z,27.70
2022-09-12T07:29:18.567Z,27.80
2022-09-12T07:31:46.313Z,28.00
2022-09-12T07:34:14.136Z,28.10
2022-09-12T07:36:41.264Z,28.20
2022-09-12T07:39:10.963Z,28.20
2022-09-12T07:41:38.375Z,28.10
2022-09-12T07:44:07.224Z,28.10
2022-09-12T07:46:35.499Z,28.10
2022-09-12T07:49:03.072Z,28.00
2022-09-12T07:51:31.742Z,28.10
2022-09-12T07:53:59.580Z,28.20
2022-09-12T07:56:31.090Z,28.30
2022-09-12T07:59:00.081Z,28.20
2022-09-12T08:01:27.894Z,28.30
2022-09-12T08:03:57.477Z,28.40
2022-09-12T08:06:30.446Z,28.50
2022-09-12T08:08:59.604Z,28.40
2022-09-12T08:11:28.871Z,28.30
2022-09-12T08:13:58.052Z,28.30
2022-09-12T08:16:28.103Z,28.50
2022-09-12T08:19:00.294Z,28.60
2022-09-12T08:21:30.467Z,28.50
2022-09-12T08:24:03.948Z,28.50
2022-09-12T08:26:32.919Z,28.50
2022-09-12T08:29:00.530Z,28.60
2022-09-12T08:31:28.037Z,28.80
2022-09-12T08:33:58.886Z,28.80
2022-09-12T08:36:28.519Z,28.80
2022-09-12T08:39:01.290Z,28.80
2022-09-12T08:41:45.401Z,29.00
2022-09-12T08:44:35.014Z,29.00
2022-09-12T08:47:11.123Z,28.90
2022-09-12T08:50:06.170Z,29.00
2022-09-12T08:52:39.498Z,28.90
2022-09-12T08:55:13.578Z,29.00
2022-09-12T08:57:42.168Z,29.00
2022-09-12T09:00:14.211Z,29.20
2022-09-12T09:02:47.202Z,29.20
2022-09-12T09:05:36.169Z,29.10
2022-09-12T09:08:11.352Z,29.00
2022-09-12T09:10:53.771Z,28.90
2022-09-12T09:14:04.878Z,29.10
2022-09-12T09:16:38.952Z,28.90
2022-09-12T09:19:15.739Z,28.90
2022-09-12T09:22:05.402Z,29.10
2022-09-12T09:24:43.703Z,29.20
2022-09-12T09:27:41.492Z,29.20
2022-09-12T09:30:16.087Z,29.20
2022-09-12T09:32:47.872Z,29.40
2022-09-12T09:35:26.737Z,29.60
2022-09-12T09:38:21.534Z,29.50
2022-09-12T09:40:57.104Z,29.60
2022-09-12T09:43:29.262Z,29.50
2022-09-12T09:46:00.549Z,29.30
2022-09-12T09:48:27.671Z,29.50
2022-09-12T09:50:57.698Z,29.70
2022-09-12T09:53:43.783Z,29.90
2022-09-12T09:56:29.165Z,30.20
2022-09-12T09:58:56.647Z,30.00
2022-09-12T10:01:25.019Z,29.70
2022-09-12T10:03:54.891Z,29.70
2022-09-12T10:06:34.797Z,29.70
2022-09-12T10:09:20.544Z,29.80
2022-09-12T10:11:48.806Z,29.80
2022-09-12T10:14:40.668Z,29.90
2022-09-12T10:17:34.536Z,30.00
2022-09-12T10:20:21.506Z,30.10
2022-09-12T10:22:50.750Z,30.00
2022-09-12T10:25:20.380Z,30.10
2022-09-12T10:27:59.221Z,30.20
2022-09-12T10:30:28.831Z,30.10
2022-09-12T10:33:07.107Z,30.30
2022-09-12T10:35:46.407Z,30.40
2022-09-12T10:38:24.408Z,30.40
2022-09-12T10:41:01.362Z,30.50
2022-09-12T10:43:37.721Z,30.50
2022-09-12T10:46:17.063Z,30.60
2022-09-12T10:48:53.042Z,30.80
2022-09-12T10:51:26.251Z,30.80
2022-09-12T10:54:00.042Z,30.90
2022-09-12T10:57:03.244Z,31.10
2022-09-12T10:59:54.828Z,31.70
2022-09-12T11:02:41.347Z,32.20
2022-09-12T11:05:19.468Z,32.60
2022-09-12T11:07:53.387Z,33.10
2022-09-12T11:10:36.735Z,33.70
2022-09-12T11:13:39.111Z,34.30
2022-09-12T11:16:20.041Z,34.90
2022-09-12T11:19:05.241Z,34.80
2022-09-12T11:21:32.753Z,35.10
2022-09-12T11:24:21.382Z,35.10
2022-09-12T11:26:54.026Z,34.60
2022-09-12T11:29:58.225Z,34.50
2022-09-12T11:32:46.961Z,35.40
2022-09-12T11:35:25.656Z,35.00
2022-09-12T11:38:21.600Z,34.80
2022-09-12T11:41:14.644Z,35.00
2022-09-12T11:43:59.077Z,34.70
2022-09-12T11:46:36.730Z,34.90
2022-09-12T11:49:12.380Z,34.90
2022-09-12T11:51:51.926Z,34.70
2022-09-12T11:54:40.733Z,34.70
2022-09-12T11:57:12.560Z,34.70
2022-09-12T12:00:03.227Z,34.90
2022-09-12T12:03:14.985Z,34.90
2022-09-12T12:06:06.366Z,35.30
2022-09-12T12:08:40.346Z,35.90
2022-09-12T12:11:09.105Z,35.60
2022-09-12T12:14:06.654Z,35.90
2022-09-12T12:16:43.854Z,35.90
2022-09-12T12:19:18.409Z,35.70
2022-09-12T12:21:47.537Z,35.70
2022-09-12T12:24:23.700Z,35.50
2022-09-12T12:27:02.751Z,35.60
2022-09-12T12:29:43.530Z,35.50
2022-09-12T12:32:11.646Z,35.20
2022-09-12T12:34:40.290Z,35.40
2022-09-12T12:37:19.926Z,35.00
2022-09-12T12:39:48.369Z,35.10
2022-09-12T12:42:36.931Z,35.70
2022-09-12T12:45:10.032Z,36.10
2022-09-12T12:47:45.959Z,35.70
2022-09-12T12:50:26.302Z,35.30
2022-09-12T12:53:01.880Z,35.90
2022-09-12T12:55:46.184Z,35.70
2022-09-12T12:58:22.462Z,35.90
2022-09-12T13:01:17.148Z,36.20
2022-09-12T13:03:53.670Z,36.20
2022-09-12T13:06:37.726Z,36.40
2022-09-12T13:09:32.051Z,36.30
2022-09-12T13:12:05.772Z,36.00
2022-09-12T13:14:59.900Z,35.50
2022-09-12T13:17:39.386Z,35.40
2022-09-12T13:20:29.192Z,35.10
2022-09-12T13:22:58.911Z,35.80
2022-09-12T13:25:34.135Z,35.40
2022-09-12T13:28:16.065Z,35.60
2022-09-12T13:30:58.619Z,35.80
2022-09-12T13:33:49.893Z,35.30
2022-09-12T13:36:36.187Z,35.70
2022-09-12T13:39:30.628Z,35.40
2022-09-12T13:42:24.183Z,34.70
2022-09-12T13:45:22.903Z,34.40
2022-09-12T13:48:02.262Z,33.90
2022-09-12T13:50:42.834Z,33.50
2022-09-12T13:53:17.094Z,32.70
2022-09-12T13:55:50.164Z,31.70
2022-09-12T13:58:21.006Z,31.30
2022-09-12T14:01:14.381Z,30.80
2022-09-12T14:04:12.066Z,30.50
2022-09-12T14:06:46.792Z,30.10
2022-09-12T14:09:16.638Z,29.90
2022-09-12T14:11:44.203Z,29.90
2022-09-12T14:14:31.451Z,29.90
2022-09-12T14:17:01.406Z,29.70
2022-09-12T14:19:29.415Z,29.60
2022-09-12T14:21:58.478Z,29.60
2022-09-12T14:24:26.221Z,29.50
2022-09-12T14:26:55.629Z,29.50
2022-09-12T14:29:25.088Z,29.60
2022-09-12T14:32:04.347Z,29.50
2022-09-12T14:34:31.752Z,29.50
2022-09-12T14:37:00.284Z,29.50
2022-09-12T14:39:50.125Z,29.30
2022-09-12T14:42:20.821Z,29.30
2022-09-12T14:45:29.794Z,29.20
2022-09-12T14:47:58.703Z,29.10
2022-09-12T14:50:29.807Z,29.00
2022-09-12T14:53:18.544Z,29.00
2022-09-12T14:55:57.821Z,29.10
2022-09-12T14:58:27.547Z,29.00
2022-09-12T15:01:02.226Z,29.00
2022-09-12T15:03:33.722Z,29.00
2022-09-12T15:06:03.897Z,28.90
2022-09-12T15:08:32.233Z,28.80
2022-09-12T15:11:00.027Z,28.80
2022-09-12T15:13:28.839Z,28.80
2022-09-12T15:16:00.333Z,28.70
2022-09-12T15:18:29.252Z,28.70
2022-09-12T15:21:02.470Z,28.70
2022-09-12T15:23:44.034Z,28.70
2022-09-12T15:26:15.762Z,28.50
2022-09-12T15:28:43.416Z,28.50
2022-09-12T15:31:30.074Z,28.60
2022-09-12T15:33:59.730Z,28.60
2022-09-12T15:36:28.903Z,28.60
2022-09-12T15:38:56.692Z,28.50
2022-09-12T15:41:30.425Z,28.40
2022-09-12T15:43:57.896Z,28.40
2022-09-12T15:46:28.246Z,28.40
2022-09-12T15:48:56.831Z,28.30
2022-09-12T15:51:24.040Z,28.30
2022-09-12T15:53:52.676Z,28.20
2022-09-12T15:56:22.380Z,28.10
2022-09-12T15:58:58.892Z,28.10
2022-09-12T16:01:31.255Z,28.10
2022-09-12T16:03:58.991Z,28.10
2022-09-12T16:06:27.279Z,28.10
2022-09-12T16:08:54.444Z,28.10
2022-09-12T16:11:24.379Z,28.20
2022-09-12T16:13:56.107Z,28.30
2022-09-12T16:16:23.847Z,28.30
2022-09-12T16:18:51.222Z,28.30
2022-09-12T16:21:18.733Z,28.20
2022-09-12T16:23:47.587Z,28.20
2022-09-12T16:26:15.490Z,28.20
2022-09-12T16:28:43.177Z,28.30
2022-09-12T16:31:13.374Z,28.30
2022-09-12T16:33:40.881Z,28.30
2022-09-12T16:36:10.605Z,28.30
2022-09-12T16:38:49.271Z,28.30
2022-09-12T16:41:17.951Z,28.30
2022-09-12T16:43:45.739Z,28.30
2022-09-12T16:46:19.163Z,28.30
2022-09-12T16:48:52.728Z,28.30
2022-09-12T16:51:28.564Z,28.10
2022-09-12T16:53:56.376Z,28.10
2022-09-12T16:56:24.015Z,28.10
2022-09-12T16:58:51.828Z,28.00
2022-09-12T17:01:24.409Z,28.00
2022-09-12T17:03:56.944Z,28.10
2022-09-12T17:06:25.442Z,28.10
2022-09-12T17:08:54.276Z,28.10
2022-09-12T17:11:33.458Z,28.10
2022-09-12T17:14:05.289Z,28.00
2022-09-12T17:16:35.732Z,28.00
2022-09-12T17:19:03.325Z,27.90
2022-09-12T17:21:30.609Z,27.90
2022-09-12T17:23:59.328Z,27.80
2022-09-12T17:26:27.007Z,27.80
2022-09-12T17:28:54.244Z,27.70
2022-09-12T17:31:21.632Z,27.60
2022-09-12T17:33:49.140Z,27.70
2022-09-12T17:36:18.663Z,27.70
2022-09-12T17:38:46.737Z,27.60
2022-09-12T17:41:20.405Z,27.60
2022-09-12T17:43:57.605Z,27.60
2022-09-12T17:46:36.517Z,27.60
2022-09-12T17:49:11.687Z,27.60
2022-09-12T17:51:40.564Z,27.60
2022-09-12T17:54:11.943Z,27.60
2022-09-12T17:56:39.895Z,27.60
2022-09-12T17:59:08.573Z,27.60
2022-09-12T18:01:54.550Z,27.50
2022-09-12T18:04:21.900Z,27.50
2022-09-12T18:06:49.380Z,27.50
2022-09-12T18:09:19.884Z,27.50
2022-09-12T18:11:48.938Z,27.50
2022-09-12T18:14:17.220Z,27.50
2022-09-12T18:16:45.547Z,27.40
2022-09-12T18:19:12.989Z,27.40
2022-09-12T18:21:41.110Z,27.40
2022-09-12T18:24:09.607Z,27.40
2022-09-12T18:26:37.351Z,27.30
2022-09-12T18:29:04.891Z,27.30
2022-09-12T18:31:32.298Z,27.20
2022-09-12T18:34:00.685Z,27.20
2022-09-12T18:36:29.263Z,27.20
2022-09-12T18:38:58.669Z,27.10
2022-09-12T18:41:26.757Z,27.00
2022-09-12T18:43:55.786Z,27.00
2022-09-12T18:46:23.315Z,27.00
2022-09-12T18:48:52.253Z,27.00
2022-09-12T18:51:23.410Z,26.90
2022-09-12T18:53:55.850Z,26.90
2022-09-12T18:56:24.836Z,26.90
2022-09-12T18:58:55.221Z,26.90
2022-09-12T19:01:25.351Z,26.80
2022-09-12T19:03:53.523Z,26.80
2022-09-12T19:06:23.556Z,26.80
2022-09-12T19:08:52.741Z,26.80
2022-09-12T19:11:22.016Z,26.90
2022-09-12T19:13:53.339Z,26.90
2022-09-12T19:16:27.098Z,26.90
2022-09-12T19:19:00.944Z,26.90
2022-09-12T19:21:31.658Z,27.00
2022-09-12T19:24:07.302Z,27.00
2022-09-12T19:26:37.081Z,27.10
2022-09-12T19:29:08.717Z,27.10
2022-09-12T19:31:42.411Z,27.00
2022-09-12T19:34:22.125Z,27.00
2022-09-12T19:36:56.137Z,27.00
2022-09-12T19:39:30.864Z,27.10
2022-09-12T19:42:04.114Z,27.10
2022-09-12T19:44:33.223Z,27.10
2022-09-12T19:47:02.916Z,27.10
2022-09-12T19:49:30.528Z,27.10
2022-09-12T19:51:59.664Z,27.20
2022-09-12T19:54:27.521Z,27.30
2022-09-12T19:56:54.984Z,27.30
2022-09-12T19:59:25.323Z,27.30
2022-09-12T20:01:58.796Z,27.30
2022-09-12T20:04:28.126Z,27.30
2022-09-12T20:07:00.753Z,27.30
2022-09-12T20:09:33.261Z,27.40
2022-09-12T20:14:43.736Z,27.40
2022-09-12T20:17:12.469Z,27.40
2022-09-12T20:19:43.023Z,27.30
2022-09-12T20:22:10.440Z,27.40
2022-09-12T20:24:38.608Z,27.40
2022-09-12T20:27:06.773Z,27.40
2022-09-12T20:29:34.194Z,27.30
2022-09-12T20:32:03.060Z,27.20
2022-09-12T20:34:36.333Z,27.20
2022-09-12T20:37:03.916Z,27.10
2022-09-12T20:39:34.684Z,27.20
2022-09-12T20:42:02.292Z,27.20
2022-09-12T20:44:33.110Z,27.20
2022-09-12T20:47:01.335Z,27.20
2022-09-12T20:49:30.104Z,27.20
2022-09-12T20:51:57.275Z,27.10
2022-09-12T20:54:28.160Z,27.10
2022-09-12T20:56:59.067Z,27.10
2022-09-12T20:59:27.896Z,27.00
2022-09-12T21:01:55.476Z,27.00
2022-09-12T21:04:24.021Z,26.90
2022-09-12T21:06:53.225Z,26.90
2022-09-12T21:09:24.402Z,26.90
2022-09-12T21:11:51.815Z,26.90
2022-09-12T21:14:20.571Z,26.90
2022-09-12T21:16:47.998Z,26.90
2022-09-12T21:19:15.246Z,26.90
2022-09-12T21:21:43.090Z,26.90
2022-09-12T21:24:13.619Z,26.90
2022-09-12T21:26:41.915Z,26.90
2022-09-12T21:29:09.065Z,26.90
2022-09-12T21:31:36.769Z,26.80
2022-09-12T21:34:04.063Z,26.70
2022-09-12T21:36:31.295Z,26.70
2022-09-12T21:38:59.579Z,26.60
2022-09-12T21:41:26.818Z,26.60
2022-09-12T21:43:54.140Z,26.60
2022-09-12T21:46:21.250Z,26.60
2022-09-12T21:48:48.627Z,26.60
2022-09-12T21:51:15.711Z,26.60
2022-09-12T21:53:43.402Z,26.60
2022-09-12T21:56:10.550Z,26.50
2022-09-12T21:58:38.379Z,26.60
2022-09-12T22:01:08.647Z,26.60
2022-09-12T22:03:36.039Z,26.60
2022-09-12T22:06:05.784Z,26.50
2022-09-12T22:08:34.312Z,26.50
2022-09-12T22:11:09.737Z,26.50
2022-09-12T22:13:39.286Z,26.40
2022-09-12T22:16:07.726Z,26.40
2022-09-12T22:18:36.654Z,26.40
2022-09-12T22:21:08.339Z,26.40
2022-09-12T22:23:54.059Z,26.30
2022-09-12T22:26:21.735Z,26.20
2022-09-12T22:28:50.352Z,26.20
2022-09-12T22:31:18.130Z,26.20
2022-09-12T22:33:45.865Z,26.10
2022-09-12T22:36:13.683Z,26.20
2022-09-12T22:38:41.093Z,26.10
2022-09-12T22:41:10.705Z,26.10
2022-09-12T22:43:40.783Z,26.10
2022-09-12T22:46:15.152Z,26.10
2022-09-12T22:48:45.323Z,26.20
2022-09-12T22:51:12.654Z,26.20
2022-09-12T22:53:39.882Z,26.10
2022-09-12T22:56:07.543Z,26.00
2022-09-12T22:58:38.966Z,26.00
2022-09-12T23:01:07.195Z,26.00
2022-09-12T23:03:34.733Z,26.00
2022-09-12T23:06:02.348Z,25.90
2022-09-12T23:08:31.572Z,25.90
2022-09-12T23:11:19.255Z,25.80
2022-09-12T23:13:48.476Z,25.80
2022-09-12T23:16:18.786Z,25.70
2022-09-12T23:18:46.210Z,25.70
2022-09-12T23:21:39.487Z,25.70
2022-09-12T23:24:06.804Z,25.70
2022-09-12T23:26:35.468Z,25.60
2022-09-12T23:29:06.546Z,25.60
2022-09-12T23:31:34.296Z,25.60
2022-09-12T23:34:06.078Z,25.60
2022-09-12T23:36:35.349Z,25.50
2022-09-12T23:39:02.978Z,25.60
2022-09-12T23:41:31.382Z,25.50
2022-09-12T23:43:58.885Z,25.50
2022-09-12T23:46:26.142Z,25.40
2022-09-12T23:48:56.211Z,25.40
2022-09-12T23:51:23.839Z,25.40
2022-09-12T23:53:51.013Z,25.40
2022-09-12T23:56:18.672Z,25.40
2022-09-12T23:58:45.999Z,25.40
